sensor_id;sensor_type;location;lat;lon;timestamp;P1;durP1;ratioP1;P2;durP2;ratioP2
19095;SDS011;9680;52.520;13.332;2022-11-20T00:00:08;17.37;;;7.00;;
19095;SDS011;9680;52.520;13.332;2022-11-20T00:02:34;18.63;;;7.37;;
19095;SDS011;9680;52.520;13.332;2022-11-20T00:05:00;17.90;;;7.17;;
19095;SDS011;9680;52.520;13.332;2022-11-20T00:07:25;25.73;;;7.13;;
19095;SDS011;9680;52.520;13.332;2022-11-20T00:09:50;19.67;;;7.60;;
19095;SDS011;9680;52.520;13.332;2022-11-20T00:12:16;15.30;;;6.87;;
19095;SDS011;9680;52.520;13.332;2022-11-20T00:14:41;16.97;;;7.30;;
19095;SDS011;9680;52.520;13.332;2022-11-20T00:17:07;15.80;;;7.03;;
19095;SDS011;9680;52.520;13.332;2022-11-20T00:19:32;18.33;;;6.97;;
19095;SDS011;9680;52.520;13.332;2022-11-20T00:21:58;15.03;;;6.80;;
19095;SDS011;9680;52.520;13.332;2022-11-20T00:24:23;15.70;;;6.60;;
19095;SDS011;9680;52.520;13.332;2022-11-20T00:26:48;16.67;;;6.90;;
19095;SDS011;9680;52.520;13.332;2022-11-20T00:29:14;18.07;;;7.13;;
19095;SDS011;9680;52.520;13.332;2022-11-20T00:31:39;14.87;;;6.60;;
19095;SDS011;9680;52.520;13.332;2022-11-20T00:34:05;17.00;;;6.53;;
19095;SDS011;9680;52.520;13.332;2022-11-20T00:36:32;12.97;;;5.90;;
19095;SDS011;9680;52.520;13.332;2022-11-20T00:38:59;20.80;;;6.93;;
19095;SDS011;9680;52.520;13.332;2022-11-20T00:41:25;18.73;;;7.27;;
19095;SDS011;9680;52.520;13.332;2022-11-20T00:43:52;16.37;;;6.77;;
19095;SDS011;9680;52.520;13.332;2022-11-20T00:46:19;16.13;;;6.57;;
19095;SDS011;9680;52.520;13.332;2022-11-20T00:48:46;13.97;;;6.00;;
19095;SDS011;9680;52.520;13.332;2022-11-20T00:51:13;16.37;;;7.00;;
19095;SDS011;9680;52.520;13.332;2022-11-20T00:53:40;18.47;;;7.47;;
19095;SDS011;9680;52.520;13.332;2022-11-20T00:56:06;19.67;;;7.00;;
19095;SDS011;9680;52.520;13.332;2022-11-20T00:58:35;17.87;;;6.93;;
19095;SDS011;9680;52.520;13.332;2022-11-20T01:01:09;17.70;;;6.90;;
19095;SDS011;9680;52.520;13.332;2022-11-20T01:03:38;15.57;;;6.30;;
19095;SDS011;9680;52.520;13.332;2022-11-20T01:08:44;18.07;;;6.97;;
19095;SDS011;9680;52.520;13.332;2022-11-20T01:11:12;21.37;;;7.37;;
19095;SDS011;9680;52.520;13.332;2022-11-20T01:13:51;16.37;;;6.93;;
19095;SDS011;9680;52.520;13.332;2022-11-20T01:16:19;17.47;;;6.63;;
19095;SDS011;9680;52.520;13.332;2022-11-20T01:18:50;16.83;;;6.90;;
19095;SDS011;9680;52.520;13.332;2022-11-20T01:21:18;21.77;;;6.87;;
19095;SDS011;9680;52.520;13.332;2022-11-20T01:23:46;16.33;;;6.90;;
19095;SDS011;9680;52.520;13.332;2022-11-20T01:26:14;17.53;;;6.80;;
19095;SDS011;9680;52.520;13.332;2022-11-20T01:28:44;18.07;;;7.17;;
19095;SDS011;9680;52.520;13.332;2022-11-20T01:31:14;20.27;;;6.57;;
19095;SDS011;9680;52.520;13.332;2022-11-20T01:33:41;19.73;;;6.87;;
19095;SDS011;9680;52.520;13.332;2022-11-20T01:36:08;17.87;;;6.67;;
19095;SDS011;9680;52.520;13.332;2022-11-20T01:38:34;17.27;;;6.83;;
19095;SDS011;9680;52.520;13.332;2022-11-20T01:40:59;19.80;;;7.50;;
19095;SDS011;9680;52.520;13.332;2022-11-20T01:43:25;20.43;;;7.90;;
19095;SDS011;9680;52.520;13.332;2022-11-20T01:53:54;19.03;;;7.03;;
19095;SDS011;9680;52.520;13.332;2022-11-20T01:56:23;18.73;;;7.00;;
19095;SDS011;9680;52.520;13.332;2022-11-20T01:58:51;20.53;;;8.03;;
19095;SDS011;9680;52.520;13.332;2022-11-20T02:01:21;19.63;;;7.40;;
19095;SDS011;9680;52.520;13.332;2022-11-20T02:03:47;16.60;;;6.70;;
19095;SDS011;9680;52.520;13.332;2022-11-20T02:06:16;22.80;;;8.10;;
19095;SDS011;9680;52.520;13.332;2022-11-20T02:08:48;17.43;;;7.23;;
19095;SDS011;9680;52.520;13.332;2022-11-20T02:11:13;19.90;;;7.50;;
19095;SDS011;9680;52.520;13.332;2022-11-20T02:13:39;15.77;;;7.40;;
19095;SDS011;9680;52.520;13.332;2022-11-20T02:16:08;20.00;;;8.00;;
19095;SDS011;9680;52.520;13.332;2022-11-20T02:18:55;18.03;;;7.23;;
19095;SDS011;9680;52.520;13.332;2022-11-20T02:24:04;19.07;;;7.50;;
19095;SDS011;9680;52.520;13.332;2022-11-20T02:26:34;20.27;;;7.70;;
19095;SDS011;9680;52.520;13.332;2022-11-20T02:29:04;21.63;;;7.40;;
19095;SDS011;9680;52.520;13.332;2022-11-20T02:31:34;17.27;;;7.50;;
19095;SDS011;9680;52.520;13.332;2022-11-20T02:34:02;18.30;;;7.53;;
19095;SDS011;9680;52.520;13.332;2022-11-20T02:36:27;21.63;;;7.50;;
19095;SDS011;9680;52.520;13.332;2022-11-20T02:38:55;22.70;;;7.93;;
19095;SDS011;9680;52.520;13.332;2022-11-20T02:41:21;20.23;;;7.50;;
19095;SDS011;9680;52.520;13.332;2022-11-20T02:43:47;19.60;;;7.57;;
19095;SDS011;9680;52.520;13.332;2022-11-20T02:46:12;19.37;;;7.90;;
19095;SDS011;9680;52.520;13.332;2022-11-20T02:48:38;20.30;;;7.73;;
19095;SDS011;9680;52.520;13.332;2022-11-20T02:51:03;20.60;;;7.83;;
19095;SDS011;9680;52.520;13.332;2022-11-20T02:53:29;18.60;;;7.57;;
19095;SDS011;9680;52.520;13.332;2022-11-20T02:55:54;19.63;;;8.10;;
19095;SDS011;9680;52.520;13.332;2022-11-20T02:58:20;19.30;;;7.70;;
19095;SDS011;9680;52.520;13.332;2022-11-20T03:00:46;20.50;;;8.13;;
19095;SDS011;9680;52.520;13.332;2022-11-20T03:03:11;18.17;;;7.90;;
19095;SDS011;9680;52.520;13.332;2022-11-20T03:05:36;23.17;;;7.87;;
19095;SDS011;9680;52.520;13.332;2022-11-20T03:08:02;19.10;;;7.37;;
19095;SDS011;9680;52.520;13.332;2022-11-20T03:10:27;18.90;;;7.60;;
19095;SDS011;9680;52.520;13.332;2022-11-20T03:12:56;19.87;;;8.03;;
19095;SDS011;9680;52.520;13.332;2022-11-20T03:15:22;23.03;;;8.57;;
19095;SDS011;9680;52.520;13.332;2022-11-20T03:17:48;21.30;;;7.87;;
19095;SDS011;9680;52.520;13.332;2022-11-20T03:20:14;18.33;;;7.27;;
19095;SDS011;9680;52.520;13.332;2022-11-20T03:22:39;17.60;;;7.70;;
19095;SDS011;9680;52.520;13.332;2022-11-20T03:25:05;20.03;;;8.43;;
19095;SDS011;9680;52.520;13.332;2022-11-20T03:27:34;20.17;;;8.40;;
19095;SDS011;9680;52.520;13.332;2022-11-20T03:30:00;19.20;;;7.70;;
19095;SDS011;9680;52.520;13.332;2022-11-20T03:32:25;21.53;;;8.10;;
19095;SDS011;9680;52.520;13.332;2022-11-20T03:34:51;20.40;;;8.00;;
19095;SDS011;9680;52.520;13.332;2022-11-20T03:37:16;24.60;;;9.00;;
19095;SDS011;9680;52.520;13.332;2022-11-20T03:39:42;21.50;;;8.27;;
19095;SDS011;9680;52.520;13.332;2022-11-20T03:42:08;18.03;;;7.47;;
19095;SDS011;9680;52.520;13.332;2022-11-20T03:44:53;21.93;;;8.37;;
19095;SDS011;9680;52.520;13.332;2022-11-20T03:47:19;21.47;;;8.60;;
19095;SDS011;9680;52.520;13.332;2022-11-20T03:49:44;20.17;;;7.90;;
19095;SDS011;9680;52.520;13.332;2022-11-20T03:52:10;21.23;;;8.33;;
19095;SDS011;9680;52.520;13.332;2022-11-20T03:54:35;25.33;;;8.60;;
19095;SDS011;9680;52.520;13.332;2022-11-20T03:57:01;21.63;;;8.13;;
19095;SDS011;9680;52.520;13.332;2022-11-20T03:59:26;20.70;;;8.47;;
19095;SDS011;9680;52.520;13.332;2022-11-20T04:01:52;21.50;;;8.30;;
19095;SDS011;9680;52.520;13.332;2022-11-20T04:04:17;21.67;;;8.20;;
19095;SDS011;9680;52.520;13.332;2022-11-20T04:06:42;20.73;;;8.73;;
19095;SDS011;9680;52.520;13.332;2022-11-20T04:09:08;18.47;;;7.77;;
19095;SDS011;9680;52.520;13.332;2022-11-20T04:11:37;20.10;;;8.13;;
19095;SDS011;9680;52.520;13.332;2022-11-20T04:14:05;23.87;;;7.67;;
19095;SDS011;9680;52.520;13.332;2022-11-20T04:16:37;23.53;;;8.70;;
19095;SDS011;9680;52.520;13.332;2022-11-20T04:19:04;21.60;;;9.03;;
19095;SDS011;9680;52.520;13.332;2022-11-20T04:21:31;22.70;;;9.23;;
19095;SDS011;9680;52.520;13.332;2022-11-20T04:23:56;22.57;;;8.67;;
19095;SDS011;9680;52.520;13.332;2022-11-20T04:26:24;19.43;;;7.40;;
19095;SDS011;9680;52.520;13.332;2022-11-20T04:28:51;19.27;;;7.47;;
19095;SDS011;9680;52.520;13.332;2022-11-20T04:31:18;23.83;;;8.67;;
19095;SDS011;9680;52.520;13.332;2022-11-20T04:33:45;23.20;;;8.30;;
19095;SDS011;9680;52.520;13.332;2022-11-20T04:36:12;22.47;;;8.50;;
19095;SDS011;9680;52.520;13.332;2022-11-20T04:38:39;16.10;;;7.33;;
19095;SDS011;9680;52.520;13.332;2022-11-20T04:41:06;22.17;;;9.00;;
19095;SDS011;9680;52.520;13.332;2022-11-20T04:43:33;20.97;;;8.40;;
19095;SDS011;9680;52.520;13.332;2022-11-20T04:45:59;24.17;;;8.53;;
19095;SDS011;9680;52.520;13.332;2022-11-20T04:48:26;22.00;;;8.90;;
19095;SDS011;9680;52.520;13.332;2022-11-20T04:50:53;19.17;;;7.73;;
19095;SDS011;9680;52.520;13.332;2022-11-20T04:53:18;21.83;;;7.77;;
19095;SDS011;9680;52.520;13.332;2022-11-20T04:55:45;20.93;;;8.47;;
19095;SDS011;9680;52.520;13.332;2022-11-20T04:58:11;18.67;;;7.97;;
19095;SDS011;9680;52.520;13.332;2022-11-20T05:00:36;21.77;;;8.37;;
19095;SDS011;9680;52.520;13.332;2022-11-20T05:03:02;21.07;;;8.53;;
19095;SDS011;9680;52.520;13.332;2022-11-20T05:05:28;19.83;;;8.00;;
19095;SDS011;9680;52.520;13.332;2022-11-20T05:07:57;20.67;;;8.87;;
19095;SDS011;9680;52.520;13.332;2022-11-20T05:10:24;22.03;;;7.87;;
19095;SDS011;9680;52.520;13.332;2022-11-20T05:12:50;21.03;;;7.90;;
19095;SDS011;9680;52.520;13.332;2022-11-20T05:15:16;20.57;;;8.07;;
19095;SDS011;9680;52.520;13.332;2022-11-20T05:17:46;21.70;;;8.63;;
19095;SDS011;9680;52.520;13.332;2022-11-20T05:20:15;20.77;;;8.07;;
19095;SDS011;9680;52.520;13.332;2022-11-20T05:22:40;21.47;;;7.60;;
19095;SDS011;9680;52.520;13.332;2022-11-20T05:25:06;22.63;;;8.40;;
19095;SDS011;9680;52.520;13.332;2022-11-20T05:27:31;17.83;;;7.53;;
19095;SDS011;9680;52.520;13.332;2022-11-20T05:29:57;22.07;;;8.23;;
19095;SDS011;9680;52.520;13.332;2022-11-20T05:32:22;20.80;;;7.73;;
19095;SDS011;9680;52.520;13.332;2022-11-20T05:34:50;19.57;;;8.30;;
19095;SDS011;9680;52.520;13.332;2022-11-20T05:37:16;24.73;;;8.57;;
19095;SDS011;9680;52.520;13.332;2022-11-20T05:39:42;21.90;;;8.60;;
19095;SDS011;9680;52.520;13.332;2022-11-20T05:42:07;19.33;;;7.53;;
19095;SDS011;9680;52.520;13.332;2022-11-20T05:44:51;21.03;;;7.87;;
19095;SDS011;9680;52.520;13.332;2022-11-20T05:47:16;21.17;;;8.13;;
19095;SDS011;9680;52.520;13.332;2022-11-20T05:49:42;21.33;;;8.63;;
19095;SDS011;9680;52.520;13.332;2022-11-20T05:52:07;19.63;;;7.53;;
19095;SDS011;9680;52.520;13.332;2022-11-20T05:54:33;23.37;;;8.43;;
19095;SDS011;9680;52.520;13.332;2022-11-20T05:56:58;22.00;;;8.43;;
19095;SDS011;9680;52.520;13.332;2022-11-20T05:59:24;20.03;;;8.07;;
19095;SDS011;9680;52.520;13.332;2022-11-20T06:01:49;19.97;;;8.13;;
19095;SDS011;9680;52.520;13.332;2022-11-20T06:04:14;20.40;;;7.23;;
19095;SDS011;9680;52.520;13.332;2022-11-20T06:06:40;21.37;;;8.30;;
19095;SDS011;9680;52.520;13.332;2022-11-20T06:09:05;22.93;;;7.70;;
19095;SDS011;9680;52.520;13.332;2022-11-20T06:11:31;20.27;;;7.93;;
19095;SDS011;9680;52.520;13.332;2022-11-20T06:13:56;19.17;;;7.47;;
19095;SDS011;9680;52.520;13.332;2022-11-20T06:16:22;22.87;;;8.60;;
19095;SDS011;9680;52.520;13.332;2022-11-20T06:18:47;22.33;;;8.23;;
19095;SDS011;9680;52.520;13.332;2022-11-20T06:21:14;23.27;;;7.73;;
19095;SDS011;9680;52.520;13.332;2022-11-20T06:23:42;19.50;;;7.63;;
19095;SDS011;9680;52.520;13.332;2022-11-20T06:26:26;19.97;;;8.10;;
19095;SDS011;9680;52.520;13.332;2022-11-20T06:28:53;17.17;;;7.33;;
19095;SDS011;9680;52.520;13.332;2022-11-20T06:31:20;20.07;;;7.80;;
19095;SDS011;9680;52.520;13.332;2022-11-20T06:33:48;23.70;;;8.40;;
19095;SDS011;9680;52.520;13.332;2022-11-20T06:36:15;23.77;;;8.90;;
19095;SDS011;9680;52.520;13.332;2022-11-20T06:38:42;18.77;;;7.57;;
19095;SDS011;9680;52.520;13.332;2022-11-20T06:41:12;19.20;;;8.33;;
19095;SDS011;9680;52.520;13.332;2022-11-20T06:43:42;22.33;;;7.87;;
19095;SDS011;9680;52.520;13.332;2022-11-20T06:46:09;21.80;;;7.53;;
19095;SDS011;9680;52.520;13.332;2022-11-20T06:48:36;22.00;;;8.23;;
19095;SDS011;9680;52.520;13.332;2022-11-20T06:51:05;21.20;;;7.97;;
19095;SDS011;9680;52.520;13.332;2022-11-20T06:53:32;20.73;;;7.43;;
19095;SDS011;9680;52.520;13.332;2022-11-20T06:55:57;20.67;;;8.60;;
19095;SDS011;9680;52.520;13.332;2022-11-20T06:58:23;20.53;;;8.43;;
19095;SDS011;9680;52.520;13.332;2022-11-20T07:00:51;22.83;;;8.43;;
19095;SDS011;9680;52.520;13.332;2022-11-20T07:03:17;21.37;;;8.47;;
19095;SDS011;9680;52.520;13.332;2022-11-20T07:05:42;19.10;;;7.87;;
19095;SDS011;9680;52.520;13.332;2022-11-20T07:08:08;21.73;;;8.40;;
19095;SDS011;9680;52.520;13.332;2022-11-20T07:10:34;20.33;;;7.70;;
19095;SDS011;9680;52.520;13.332;2022-11-20T07:13:00;21.60;;;8.80;;
19095;SDS011;9680;52.520;13.332;2022-11-20T07:15:25;22.33;;;8.93;;
19095;SDS011;9680;52.520;13.332;2022-11-20T07:17:51;18.33;;;7.83;;
19095;SDS011;9680;52.520;13.332;2022-11-20T07:20:17;20.60;;;8.33;;
19095;SDS011;9680;52.520;13.332;2022-11-20T07:22:42;21.37;;;8.03;;
19095;SDS011;9680;52.520;13.332;2022-11-20T07:25:08;20.77;;;8.73;;
19095;SDS011;9680;52.520;13.332;2022-11-20T07:27:35;20.83;;;7.73;;
19095;SDS011;9680;52.520;13.332;2022-11-20T07:30:00;22.50;;;8.60;;
19095;SDS011;9680;52.520;13.332;2022-11-20T07:32:27;23.37;;;8.50;;
19095;SDS011;9680;52.520;13.332;2022-11-20T07:34:53;22.70;;;9.40;;
19095;SDS011;9680;52.520;13.332;2022-11-20T07:37:18;23.13;;;8.13;;
19095;SDS011;9680;52.520;13.332;2022-11-20T07:39:44;23.67;;;9.57;;
19095;SDS011;9680;52.520;13.332;2022-11-20T07:42:09;21.10;;;8.83;;
19095;SDS011;9680;52.520;13.332;2022-11-20T07:44:37;21.90;;;9.00;;
19095;SDS011;9680;52.520;13.332;2022-11-20T07:47:03;18.87;;;8.20;;
19095;SDS011;9680;52.520;13.332;2022-11-20T07:49:28;20.73;;;8.37;;
19095;SDS011;9680;52.520;13.332;2022-11-20T07:51:54;21.87;;;8.57;;
19095;SDS011;9680;52.520;13.332;2022-11-20T07:54:20;23.80;;;8.80;;
19095;SDS011;9680;52.520;13.332;2022-11-20T07:56:46;21.03;;;8.73;;
19095;SDS011;9680;52.520;13.332;2022-11-20T07:59:11;23.23;;;8.60;;
19095;SDS011;9680;52.520;13.332;2022-11-20T08:01:40;24.13;;;8.87;;
19095;SDS011;9680;52.520;13.332;2022-11-20T08:04:07;24.47;;;9.17;;
19095;SDS011;9680;52.520;13.332;2022-11-20T08:06:33;21.70;;;8.67;;
19095;SDS011;9680;52.520;13.332;2022-11-20T08:08:58;21.30;;;8.43;;
19095;SDS011;9680;52.520;13.332;2022-11-20T08:11:24;26.47;;;9.33;;
19095;SDS011;9680;52.520;13.332;2022-11-20T08:14:08;19.97;;;8.30;;
19095;SDS011;9680;52.520;13.332;2022-11-20T08:16:37;19.37;;;8.07;;
19095;SDS011;9680;52.520;13.332;2022-11-20T08:19:03;22.10;;;8.30;;
19095;SDS011;9680;52.520;13.332;2022-11-20T08:21:29;22.70;;;9.20;;
19095;SDS011;9680;52.520;13.332;2022-11-20T08:23:55;26.10;;;8.97;;
19095;SDS011;9680;52.520;13.332;2022-11-20T08:26:21;20.77;;;8.87;;
19095;SDS011;9680;52.520;13.332;2022-11-20T08:28:47;27.67;;;9.87;;
19095;SDS011;9680;52.520;13.332;2022-11-20T08:31:13;22.13;;;8.83;;
19095;SDS011;9680;52.520;13.332;2022-11-20T08:33:38;24.97;;;9.03;;
19095;SDS011;9680;52.520;13.332;2022-11-20T08:36:04;22.73;;;9.03;;
19095;SDS011;9680;52.520;13.332;2022-11-20T08:38:31;20.20;;;8.33;;
19095;SDS011;9680;52.520;13.332;2022-11-20T08:40:58;25.00;;;8.93;;
19095;SDS011;9680;52.520;13.332;2022-11-20T08:43:42;21.80;;;8.40;;
19095;SDS011;9680;52.520;13.332;2022-11-20T08:46:08;20.63;;;8.70;;
19095;SDS011;9680;52.520;13.332;2022-11-20T08:48:34;20.50;;;8.53;;
19095;SDS011;9680;52.520;13.332;2022-11-20T08:50:59;21.00;;;8.47;;
19095;SDS011;9680;52.520;13.332;2022-11-20T08:53:25;24.80;;;9.03;;
19095;SDS011;9680;52.520;13.332;2022-11-20T08:55:51;22.70;;;8.67;;
19095;SDS011;9680;52.520;13.332;2022-11-20T08:58:17;25.37;;;9.67;;
19095;SDS011;9680;52.520;13.332;2022-11-20T09:00:42;25.70;;;8.93;;
19095;SDS011;9680;52.520;13.332;2022-11-20T09:03:08;22.87;;;9.17;;
19095;SDS011;9680;52.520;13.332;2022-11-20T09:05:33;22.67;;;8.73;;
19095;SDS011;9680;52.520;13.332;2022-11-20T09:08:02;25.10;;;9.03;;
19095;SDS011;9680;52.520;13.332;2022-11-20T09:10:27;22.60;;;9.17;;
19095;SDS011;9680;52.520;13.332;2022-11-20T09:12:53;22.57;;;9.00;;
19095;SDS011;9680;52.520;13.332;2022-11-20T09:15:23;19.43;;;8.70;;
19095;SDS011;9680;52.520;13.332;2022-11-20T09:17:58;20.50;;;8.63;;
19095;SDS011;9680;52.520;13.332;2022-11-20T09:20:25;24.67;;;8.90;;
19095;SDS011;9680;52.520;13.332;2022-11-20T09:22:52;24.67;;;9.33;;
19095;SDS011;9680;52.520;13.332;2022-11-20T09:25:17;23.97;;;9.07;;
19095;SDS011;9680;52.520;13.332;2022-11-20T09:27:43;23.23;;;8.97;;
19095;SDS011;9680;52.520;13.332;2022-11-20T09:30:11;23.73;;;9.17;;
19095;SDS011;9680;52.520;13.332;2022-11-20T09:32:42;23.10;;;8.60;;
19095;SDS011;9680;52.520;13.332;2022-11-20T09:35:08;22.80;;;9.57;;
19095;SDS011;9680;52.520;13.332;2022-11-20T09:37:34;21.50;;;8.57;;
19095;SDS011;9680;52.520;13.332;2022-11-20T09:40:00;21.63;;;9.13;;
19095;SDS011;9680;52.520;13.332;2022-11-20T09:55:37;22.77;;;8.67;;
19095;SDS011;9680;52.520;13.332;2022-11-20T09:58:10;21.23;;;8.70;;
19095;SDS011;9680;52.520;13.332;2022-11-20T10:00:42;23.00;;;9.20;;
19095;SDS011;9680;52.520;13.332;2022-11-20T10:03:18;25.07;;;9.10;;
19095;SDS011;9680;52.520;13.332;2022-11-20T10:05:55;19.93;;;8.27;;
19095;SDS011;9680;52.520;13.332;2022-11-20T10:08:40;19.63;;;8.63;;
19095;SDS011;9680;52.520;13.332;2022-11-20T10:14:16;22.23;;;8.53;;
19095;SDS011;9680;52.520;13.332;2022-11-20T10:19:38;18.70;;;8.30;;
19095;SDS011;9680;52.520;13.332;2022-11-20T10:22:35;18.77;;;7.77;;
19095;SDS011;9680;52.520;13.332;2022-11-20T10:25:15;22.63;;;8.50;;
19095;SDS011;9680;52.520;13.332;2022-11-20T10:30:48;20.20;;;8.63;;
19095;SDS011;9680;52.520;13.332;2022-11-20T10:33:22;20.83;;;9.07;;
19095;SDS011;9680;52.520;13.332;2022-11-20T10:38:23;20.60;;;8.50;;
19095;SDS011;9680;52.520;13.332;2022-11-20T10:40:56;19.60;;;8.50;;
19095;SDS011;9680;52.520;13.332;2022-11-20T10:43:44;20.83;;;8.63;;
19095;SDS011;9680;52.520;13.332;2022-11-20T10:46:14;22.07;;;9.17;;
19095;SDS011;9680;52.520;13.332;2022-11-20T10:48:43;21.03;;;8.93;;
19095;SDS011;9680;52.520;13.332;2022-11-20T10:57:15;19.37;;;8.23;;
19095;SDS011;9680;52.520;13.332;2022-11-20T10:59:51;21.40;;;9.90;;
19095;SDS011;9680;52.520;13.332;2022-11-20T11:02:46;22.87;;;8.63;;
19095;SDS011;9680;52.520;13.332;2022-11-20T11:07:45;19.23;;;8.17;;
19095;SDS011;9680;52.520;13.332;2022-11-20T11:10:15;19.33;;;7.93;;
19095;SDS011;9680;52.520;13.332;2022-11-20T11:12:44;22.50;;;9.37;;
19095;SDS011;9680;52.520;13.332;2022-11-20T11:15:36;18.47;;;7.93;;
19095;SDS011;9680;52.520;13.332;2022-11-20T11:18:05;19.20;;;8.43;;
19095;SDS011;9680;52.520;13.332;2022-11-20T11:20:34;18.17;;;7.37;;
19095;SDS011;9680;52.520;13.332;2022-11-20T11:23:00;19.73;;;8.37;;
19095;SDS011;9680;52.520;13.332;2022-11-20T11:25:27;20.00;;;8.60;;
19095;SDS011;9680;52.520;13.332;2022-11-20T11:28:32;22.23;;;8.77;;
19095;SDS011;9680;52.520;13.332;2022-11-20T11:30:52;17.57;;;7.77;;
19095;SDS011;9680;52.520;13.332;2022-11-20T11:33:21;19.00;;;8.00;;
19095;SDS011;9680;52.520;13.332;2022-11-20T11:35:52;16.50;;;7.50;;
19095;SDS011;9680;52.520;13.332;2022-11-20T11:38:43;17.33;;;7.13;;
19095;SDS011;9680;52.520;13.332;2022-11-20T11:41:41;17.57;;;7.40;;
19095;SDS011;9680;52.520;13.332;2022-11-20T11:44:03;22.27;;;9.00;;
19095;SDS011;9680;52.520;13.332;2022-11-20T11:47:01;16.83;;;7.40;;
19095;SDS011;9680;52.520;13.332;2022-11-20T11:49:29;18.80;;;7.23;;
19095;SDS011;9680;52.520;13.332;2022-11-20T12:02:29;17.67;;;7.50;;
19095;SDS011;9680;52.520;13.332;2022-11-20T12:05:03;19.33;;;8.33;;
19095;SDS011;9680;52.520;13.332;2022-11-20T12:13:15;19.50;;;7.63;;
19095;SDS011;9680;52.520;13.332;2022-11-20T12:15:58;18.50;;;7.27;;
19095;SDS011;9680;52.520;13.332;2022-11-20T12:18:25;19.67;;;8.47;;
19095;SDS011;9680;52.520;13.332;2022-11-20T12:26:19;15.97;;;7.07;;
19095;SDS011;9680;52.520;13.332;2022-11-20T12:49:04;13.53;;;6.27;;
19095;SDS011;9680;52.520;13.332;2022-11-20T12:55:16;14.20;;;5.87;;
19095;SDS011;9680;52.520;13.332;2022-11-20T13:00:58;15.60;;;6.43;;
19095;SDS011;9680;52.520;13.332;2022-11-20T13:06:23;13.90;;;6.33;;
19095;SDS011;9680;52.520;13.332;2022-11-20T13:08:52;13.27;;;5.80;;
19095;SDS011;9680;52.520;13.332;2022-11-20T13:19:25;15.33;;;6.47;;
19095;SDS011;9680;52.520;13.332;2022-11-20T13:21:52;16.83;;;6.30;;
19095;SDS011;9680;52.520;13.332;2022-11-20T13:27:04;17.93;;;7.00;;
19095;SDS011;9680;52.520;13.332;2022-11-20T13:29:33;15.47;;;6.43;;
19095;SDS011;9680;52.520;13.332;2022-11-20T13:34:50;13.90;;;5.83;;
19095;SDS011;9680;52.520;13.332;2022-11-20T13:40:04;16.60;;;6.60;;
19095;SDS011;9680;52.520;13.332;2022-11-20T13:42:31;19.23;;;6.87;;
19095;SDS011;9680;52.520;13.332;2022-11-20T13:45:01;12.83;;;5.67;;
19095;SDS011;9680;52.520;13.332;2022-11-20T13:47:34;16.03;;;6.27;;
19095;SDS011;9680;52.520;13.332;2022-11-20T13:50:13;16.27;;;5.83;;
19095;SDS011;9680;52.520;13.332;2022-11-20T13:52:47;13.93;;;5.77;;
19095;SDS011;9680;52.520;13.332;2022-11-20T14:01:00;13.00;;;5.57;;
19095;SDS011;9680;52.520;13.332;2022-11-20T14:03:34;13.60;;;5.57;;
19095;SDS011;9680;52.520;13.332;2022-11-20T14:06:01;13.90;;;6.10;;
19095;SDS011;9680;52.520;13.332;2022-11-20T14:08:32;22.63;;;7.17;;
19095;SDS011;9680;52.520;13.332;2022-11-20T14:11:12;14.80;;;5.70;;
19095;SDS011;9680;52.520;13.332;2022-11-20T14:13:56;13.53;;;5.47;;
19095;SDS011;9680;52.520;13.332;2022-11-20T14:16:39;13.73;;;5.53;;
19095;SDS011;9680;52.520;13.332;2022-11-20T14:21:46;16.47;;;5.57;;
19095;SDS011;9680;52.520;13.332;2022-11-20T14:24:12;14.03;;;5.60;;
19095;SDS011;9680;52.520;13.332;2022-11-20T14:26:44;15.23;;;5.70;;
19095;SDS011;9680;52.520;13.332;2022-11-20T14:29:14;12.77;;;5.40;;
19095;SDS011;9680;52.520;13.332;2022-11-20T14:31:42;12.87;;;5.47;;
19095;SDS011;9680;52.520;13.332;2022-11-20T14:34:15;13.23;;;5.60;;
19095;SDS011;9680;52.520;13.332;2022-11-20T14:36:44;15.20;;;6.17;;
19095;SDS011;9680;52.520;13.332;2022-11-20T14:39:31;15.83;;;5.50;;
19095;SDS011;9680;52.520;13.332;2022-11-20T14:42:00;11.87;;;5.20;;
19095;SDS011;9680;52.520;13.332;2022-11-20T14:44:27;14.67;;;5.53;;
19095;SDS011;9680;52.520;13.332;2022-11-20T14:46:57;13.67;;;5.87;;
19095;SDS011;9680;52.520;13.332;2022-11-20T14:49:24;15.90;;;6.03;;
19095;SDS011;9680;52.520;13.332;2022-11-20T14:52:01;14.80;;;6.27;;
19095;SDS011;9680;52.520;13.332;2022-11-20T14:54:45;15.90;;;5.83;;
19095;SDS011;9680;52.520;13.332;2022-11-20T14:57:21;16.13;;;6.57;;
19095;SDS011;9680;52.520;13.332;2022-11-20T14:59:50;14.73;;;6.33;;
19095;SDS011;9680;52.520;13.332;2022-11-20T15:02:22;20.23;;;6.33;;
19095;SDS011;9680;52.520;13.332;2022-11-20T15:04:58;14.57;;;6.00;;
19095;SDS011;9680;52.520;13.332;2022-11-20T15:12:34;15.23;;;5.90;;
19095;SDS011;9680;52.520;13.332;2022-11-20T15:15:03;13.87;;;6.00;;
19095;SDS011;9680;52.520;13.332;2022-11-20T15:17:34;14.00;;;5.57;;
19095;SDS011;9680;52.520;13.332;2022-11-20T15:20:05;13.47;;;5.33;;
19095;SDS011;9680;52.520;13.332;2022-11-20T15:22:38;16.80;;;6.37;;
19095;SDS011;9680;52.520;13.332;2022-11-20T15:25:13;19.50;;;7.00;;
19095;SDS011;9680;52.520;13.332;2022-11-20T15:27:41;16.03;;;6.30;;
19095;SDS011;9680;52.520;13.332;2022-11-20T15:30:14;13.90;;;5.97;;
19095;SDS011;9680;52.520;13.332;2022-11-20T15:32:45;14.17;;;6.37;;
19095;SDS011;9680;52.520;13.332;2022-11-20T15:35:15;16.63;;;6.37;;
19095;SDS011;9680;52.520;13.332;2022-11-20T15:37:51;15.60;;;6.40;;
19095;SDS011;9680;52.520;13.332;2022-11-20T15:40:21;17.27;;;6.57;;
19095;SDS011;9680;52.520;13.332;2022-11-20T15:42:46;15.00;;;6.70;;
19095;SDS011;9680;52.520;13.332;2022-11-20T15:45:40;18.50;;;6.27;;
19095;SDS011;9680;52.520;13.332;2022-11-20T15:48:14;17.57;;;6.57;;
19095;SDS011;9680;52.520;13.332;2022-11-20T15:53:27;19.50;;;6.57;;
19095;SDS011;9680;52.520;13.332;2022-11-20T15:56:51;18.77;;;6.43;;
19095;SDS011;9680;52.520;13.332;2022-11-20T16:04:19;14.80;;;5.87;;
19095;SDS011;9680;52.520;13.332;2022-11-20T16:06:50;17.83;;;6.30;;
19095;SDS011;9680;52.520;13.332;2022-11-20T16:24:13;15.53;;;6.33;;
19095;SDS011;9680;52.520;13.332;2022-11-20T16:26:49;15.63;;;6.23;;
19095;SDS011;9680;52.520;13.332;2022-11-20T16:29:49;15.77;;;6.87;;
19095;SDS011;9680;52.520;13.332;2022-11-20T16:32:30;14.90;;;6.37;;
19095;SDS011;9680;52.520;13.332;2022-11-20T16:35:14;15.33;;;6.40;;
19095;SDS011;9680;52.520;13.332;2022-11-20T16:37:52;15.20;;;6.20;;
19095;SDS011;9680;52.520;13.332;2022-11-20T16:43:25;18.23;;;6.80;;
19095;SDS011;9680;52.520;13.332;2022-11-20T16:45:58;17.03;;;5.83;;
19095;SDS011;9680;52.520;13.332;2022-11-20T18:02:34;16.20;;;7.00;;
19095;SDS011;9680;52.520;13.332;2022-11-20T18:35:23;15.70;;;6.97;;
19095;SDS011;9680;52.520;13.332;2022-11-20T18:38:45;21.57;;;8.40;;
19095;SDS011;9680;52.520;13.332;2022-11-20T18:41:23;16.90;;;7.10;;
19095;SDS011;9680;52.520;13.332;2022-11-20T18:53:59;16.27;;;7.20;;
19095;SDS011;9680;52.520;13.332;2022-11-20T18:56:33;16.03;;;7.40;;
19095;SDS011;9680;52.520;13.332;2022-11-20T18:59:00;17.73;;;7.10;;
19095;SDS011;9680;52.520;13.332;2022-11-20T20:56:51;20.03;;;7.30;;
19095;SDS011;9680;52.520;13.332;2022-11-20T20:59:17;15.67;;;6.70;;
19095;SDS011;9680;52.520;13.332;2022-11-20T21:01:42;18.90;;;7.77;;
19095;SDS011;9680;52.520;13.332;2022-11-20T21:04:07;16.70;;;7.27;;
19095;SDS011;9680;52.520;13.332;2022-11-20T21:06:33;20.03;;;7.30;;
19095;SDS011;9680;52.520;13.332;2022-11-20T21:08:58;19.40;;;7.60;;